createdAt,value
2019-06-08T00:01:04.024Z,8.08
2019-06-08T00:03:33.454Z,7.05
2019-06-08T00:06:02.406Z,6.67
2019-06-08T00:08:31.410Z,7.70
2019-06-08T00:11:00.376Z,6.62
2019-06-08T00:13:30.775Z,6.00
2019-06-08T00:16:00.352Z,6.30
2019-06-08T00:18:29.522Z,7.28
2019-06-08T00:20:58.568Z,7.30
2019-06-08T00:23:27.861Z,5.65
2019-06-08T00:25:56.869Z,5.92
2019-06-08T00:28:25.782Z,5.15
2019-06-08T00:30:55.195Z,6.12
2019-06-08T00:33:25.047Z,5.97
2019-06-08T00:35:54.706Z,6.03
2019-06-08T00:38:25.047Z,5.35
2019-06-08T00:40:54.030Z,5.70
2019-06-08T00:43:23.755Z,5.15
2019-06-08T00:45:53.284Z,5.30
2019-06-08T00:48:22.712Z,4.58
2019-06-08T00:50:52.013Z,5.00
2019-06-08T00:53:21.301Z,5.30
2019-06-08T00:55:50.997Z,3.98
2019-06-08T00:59:05.479Z,5.40
2019-06-08T01:02:28.910Z,4.70
2019-06-08T01:05:15.797Z,4.87
2019-06-08T01:07:41.044Z,4.20
2019-06-08T01:10:37.652Z,5.17
2019-06-08T01:13:07.590Z,5.12
2019-06-08T01:16:53.624Z,5.50
2019-06-08T01:19:51.139Z,4.03
2019-06-08T01:22:27.691Z,4.60
2019-06-08T01:25:22.148Z,3.70
2019-06-08T01:27:54.032Z,3.75
2019-06-08T01:30:28.482Z,3.87
2019-06-08T01:33:12.366Z,3.70
2019-06-08T01:35:42.926Z,3.40
2019-06-08T01:38:13.283Z,3.40
2019-06-08T01:40:42.379Z,4.10
2019-06-08T01:43:11.439Z,3.47
2019-06-08T01:45:40.523Z,3.87
2019-06-08T01:48:20.170Z,3.35
2019-06-08T01:50:40.076Z,3.47
2019-06-08T01:53:09.030Z,3.30
2019-06-08T01:55:38.001Z,3.55
2019-06-08T01:58:07.411Z,3.80
2019-06-08T02:00:41.156Z,3.20
2019-06-08T02:03:12.492Z,3.50
2019-06-08T02:05:43.350Z,3.02
2019-06-08T02:08:15.629Z,2.75
2019-06-08T02:10:45.039Z,2.85
2019-06-08T02:13:17.373Z,3.33
2019-06-08T02:15:58.743Z,2.90
2019-06-08T02:18:55.885Z,2.87
2019-06-08T02:21:30.838Z,2.60
2019-06-08T02:24:07.698Z,3.00
2019-06-08T02:26:36.846Z,2.77
2019-06-08T02:29:06.236Z,2.55
2019-06-08T02:31:37.465Z,3.55
2019-06-08T02:34:08.512Z,3.02
2019-06-08T02:36:38.110Z,2.37
2019-06-08T02:39:20.457Z,2.90
2019-06-08T02:41:49.675Z,2.77
2019-06-08T02:44:22.737Z,3.30
2019-06-08T02:46:51.874Z,2.80
2019-06-08T02:49:21.031Z,2.80
2019-06-08T02:51:50.365Z,3.17
2019-06-08T02:54:21.407Z,3.50
2019-06-08T02:56:51.440Z,3.20
2019-06-08T02:59:25.281Z,2.45
2019-06-08T03:01:58.371Z,2.70
2019-06-08T03:04:29.904Z,2.52
2019-06-08T03:07:01.459Z,2.50
2019-06-08T03:09:34.646Z,2.80
2019-06-08T03:12:09.864Z,2.40
2019-06-08T03:15:01.612Z,2.70
2019-06-08T03:17:31.102Z,2.98
2019-06-08T03:20:00.156Z,2.58
2019-06-08T03:22:32.097Z,2.95
2019-06-08T03:25:27.314Z,2.42
2019-06-08T03:27:58.027Z,2.40
2019-06-08T03:33:25.413Z,2.30
2019-06-08T03:35:58.616Z,1.80
2019-06-08T03:38:27.685Z,2.10
2019-06-08T03:40:56.656Z,1.98
2019-06-08T03:43:52.391Z,1.67
2019-06-08T03:46:21.415Z,2.02
2019-06-08T03:48:50.664Z,1.60
2019-06-08T03:51:20.027Z,2.12
2019-06-08T03:53:52.030Z,2.25
2019-06-08T03:56:28.960Z,2.10
2019-06-08T03:58:58.386Z,1.77
2019-06-08T04:01:31.903Z,1.50
2019-06-08T04:04:00.894Z,1.98
2019-06-08T04:06:32.806Z,1.70
2019-06-08T04:09:13.909Z,1.80
2019-06-08T04:12:02.433Z,1.50
2019-06-08T04:14:41.684Z,1.50
2019-06-08T04:17:46.653Z,1.40
2019-06-08T04:20:15.670Z,1.77
2019-06-08T04:22:47.293Z,1.42
2019-06-08T04:25:18.490Z,1.47
2019-06-08T04:27:47.514Z,1.40
2019-06-08T04:30:16.936Z,1.40
2019-06-08T04:32:47.630Z,1.22
2019-06-08T04:35:17.593Z,1.60
2019-06-08T04:37:50.438Z,1.45
2019-06-08T04:40:32.431Z,1.30
2019-06-08T04:42:53.483Z,1.40
2019-06-08T04:45:22.748Z,2.12
2019-06-08T04:47:51.992Z,0.90
2019-06-08T04:50:24.057Z,1.40
2019-06-08T04:52:52.334Z,1.12
2019-06-08T04:55:21.405Z,1.15
2019-06-08T04:57:50.887Z,0.85
2019-06-08T05:00:31.081Z,0.80
2019-06-08T05:02:59.350Z,1.15
2019-06-08T05:06:09.618Z,1.42
2019-06-08T05:09:32.634Z,2.25
2019-06-08T05:11:53.322Z,1.45
2019-06-08T05:14:30.313Z,1.90
2019-06-08T05:17:47.674Z,1.07
2019-06-08T05:20:17.228Z,1.07
2019-06-08T05:23:15.657Z,1.07
2019-06-08T05:27:01.016Z,1.30
2019-06-08T05:29:30.222Z,1.37
2019-06-08T05:31:59.262Z,1.10
2019-06-08T05:34:28.296Z,1.10
2019-06-08T05:37:02.371Z,1.47
2019-06-08T05:39:33.948Z,1.12
2019-06-08T05:42:03.347Z,0.90
2019-06-08T05:44:32.383Z,0.93
2019-06-08T05:47:03.338Z,0.68
2019-06-08T05:49:32.330Z,1.00
2019-06-08T05:52:01.617Z,0.90
2019-06-08T05:54:31.600Z,0.80
2019-06-08T05:57:00.621Z,0.98
2019-06-08T05:59:29.896Z,0.75
2019-06-08T06:01:59.286Z,0.93
2019-06-08T06:04:28.767Z,0.60
2019-06-08T06:06:58.019Z,1.12
2019-06-08T06:09:26.964Z,1.30
2019-06-08T06:11:55.917Z,0.90
2019-06-08T06:14:25.159Z,0.80
2019-06-08T06:16:55.089Z,0.80
2019-06-08T06:19:24.170Z,1.70
2019-06-08T06:21:53.190Z,0.80
2019-06-08T06:24:22.282Z,0.80
2019-06-08T06:26:51.720Z,0.88
2019-06-08T06:29:20.915Z,1.10
2019-06-08T06:31:50.116Z,0.68
2019-06-08T06:34:19.219Z,1.20
2019-06-08T06:36:48.471Z,0.80
2019-06-08T06:39:17.640Z,0.68
2019-06-08T06:41:47.884Z,0.65
2019-06-08T06:44:16.871Z,0.93
2019-06-08T06:46:46.178Z,1.07
2019-06-08T06:49:15.342Z,1.12
2019-06-08T06:51:44.457Z,1.07
2019-06-08T06:54:13.694Z,0.90
2019-06-08T06:56:43.158Z,1.30
2019-06-08T06:59:31.716Z,1.15
2019-06-08T07:02:01.272Z,0.90
2019-06-08T07:04:30.624Z,1.00
2019-06-08T07:06:59.669Z,0.90
2019-06-08T07:09:28.908Z,0.62
2019-06-08T07:11:58.065Z,1.57
2019-06-08T07:14:27.416Z,0.83
2019-06-08T07:16:59.167Z,0.75
2019-06-08T07:19:28.466Z,1.50
2019-06-08T07:21:58.584Z,0.90
2019-06-08T07:24:56.328Z,0.70
2019-06-08T07:27:21.093Z,1.13
2019-06-08T07:29:54.806Z,0.70
2019-06-08T07:32:24.391Z,1.43
2019-06-08T07:34:59.389Z,0.77
2019-06-08T07:37:32.311Z,1.00
2019-06-08T07:42:53.440Z,0.80
2019-06-08T07:45:29.148Z,1.20
2019-06-08T07:48:00.214Z,0.90
2019-06-08T07:50:45.362Z,1.47
2019-06-08T07:53:30.619Z,0.90
2019-06-08T07:56:04.294Z,0.90
2019-06-08T07:58:33.975Z,0.93
2019-06-08T08:01:07.883Z,1.20
2019-06-08T08:03:34.441Z,0.80
2019-06-08T08:06:04.067Z,1.37
2019-06-08T08:08:33.388Z,1.13
2019-06-08T08:11:03.627Z,0.67
2019-06-08T08:13:32.767Z,1.03
2019-06-08T08:16:01.869Z,1.17
2019-06-08T08:18:31.064Z,1.10
2019-06-08T08:21:15.870Z,1.00
2019-06-08T08:23:38.234Z,1.40
2019-06-08T08:26:08.298Z,1.07
2019-06-08T08:29:03.654Z,1.50
2019-06-08T08:31:43.954Z,1.57
2019-06-08T08:37:17.568Z,1.40
2019-06-08T08:43:28.023Z,1.43
2019-06-08T08:45:59.086Z,1.47
2019-06-08T08:48:31.827Z,1.20
2019-06-08T08:51:08.538Z,1.87
2019-06-08T08:53:37.505Z,0.80
2019-06-08T08:56:34.048Z,1.30
2019-06-08T08:59:31.173Z,1.83
2019-06-08T09:06:04.013Z,1.35
2019-06-08T09:08:24.949Z,1.00
2019-06-08T09:11:25.573Z,1.10
2019-06-08T09:15:03.971Z,1.60
2019-06-08T09:21:23.491Z,1.80
2019-06-08T09:31:03.678Z,1.07
2019-06-08T09:47:47.831Z,1.63
2019-06-08T09:50:19.714Z,1.37
2019-06-08T09:52:49.217Z,1.70
2019-06-08T09:55:18.846Z,1.30
2019-06-08T09:57:48.640Z,1.23
2019-06-08T10:00:25.522Z,1.47
2019-06-08T10:02:54.625Z,1.00
2019-06-08T10:05:48.346Z,1.30
2019-06-08T10:08:20.539Z,1.30
2019-06-08T10:10:50.826Z,1.10
2019-06-08T10:13:28.007Z,1.60
2019-06-08T10:18:51.514Z,1.90
2019-06-08T10:21:21.123Z,1.50
2019-06-08T10:23:51.123Z,1.20
2019-06-08T10:26:20.498Z,0.80
2019-06-08T10:28:51.326Z,1.20
2019-06-08T10:31:33.202Z,1.77
2019-06-08T10:33:51.425Z,1.30
2019-06-08T10:36:21.656Z,1.33
2019-06-08T10:38:50.943Z,1.50
2019-06-08T10:41:21.895Z,1.57
2019-06-08T10:43:51.907Z,1.33
2019-06-08T10:46:24.996Z,1.57
2019-06-08T10:51:43.948Z,1.30
2019-06-08T10:54:13.322Z,1.10
2019-06-08T10:56:43.242Z,1.40
2019-06-08T10:59:23.783Z,1.60
2019-06-08T11:01:53.550Z,1.57
2019-06-08T11:04:45.260Z,1.60
2019-06-08T11:07:27.837Z,1.40
2019-06-08T11:09:52.169Z,1.00
2019-06-08T11:12:21.997Z,1.23
2019-06-08T11:14:51.444Z,1.23
2019-06-08T11:17:21.710Z,1.40
2019-06-08T11:19:59.427Z,1.20
2019-06-08T11:25:19.880Z,1.00
2019-06-08T11:27:49.158Z,1.53
2019-06-08T11:30:23.403Z,2.07
2019-06-08T11:32:53.437Z,1.63
2019-06-08T11:35:28.875Z,1.00
2019-06-08T11:37:59.834Z,1.77
2019-06-08T11:40:31.238Z,1.20
2019-06-08T11:43:19.762Z,1.30
2019-06-08T11:46:08.343Z,1.80
2019-06-08T11:48:53.617Z,1.30
2019-06-08T11:51:40.011Z,2.10
2019-06-08T11:54:38.056Z,1.47
2019-06-08T11:57:11.652Z,1.20
2019-06-08T11:59:44.624Z,1.60
2019-06-08T12:02:14.415Z,1.43
2019-06-08T12:04:48.613Z,1.47
2019-06-08T12:07:20.432Z,1.30
2019-06-08T12:09:50.906Z,1.57
2019-06-08T12:12:21.360Z,1.27
2019-06-08T12:15:14.734Z,1.50
2019-06-08T12:20:33.006Z,1.60
2019-06-08T12:23:05.831Z,1.47
2019-06-08T12:25:37.747Z,1.20
2019-06-08T12:28:07.060Z,1.10
2019-06-08T12:30:38.467Z,1.27
2019-06-08T12:33:40.879Z,1.33
2019-06-08T12:36:37.433Z,1.30
2019-06-08T12:39:10.187Z,1.77
2019-06-08T12:52:43.148Z,1.70
2019-06-08T12:55:24.879Z,2.13
2019-06-08T12:57:58.118Z,2.23
2019-06-08T13:00:28.061Z,2.30
2019-06-08T13:02:58.730Z,1.50
2019-06-08T13:05:30.949Z,1.30
2019-06-08T13:08:00.670Z,1.23
2019-06-08T13:10:29.733Z,2.33
2019-06-08T13:12:58.824Z,1.90
2019-06-08T13:15:30.945Z,1.70
2019-06-08T13:17:58.829Z,2.00
2019-06-08T13:20:28.400Z,1.83
2019-06-08T13:23:00.331Z,1.10
2019-06-08T13:25:37.374Z,1.60
2019-06-08T13:27:59.205Z,1.67
2019-06-08T13:30:31.918Z,1.97
2019-06-08T13:32:59.111Z,1.80
2019-06-08T13:35:30.606Z,1.70
2019-06-08T13:37:59.079Z,1.60
2019-06-08T13:40:28.064Z,1.43
2019-06-08T13:42:58.217Z,1.47
2019-06-08T13:45:27.910Z,1.47
2019-06-08T13:47:58.687Z,1.70
2019-06-08T13:50:27.981Z,1.30
2019-06-08T13:52:58.728Z,1.60
2019-06-08T13:55:47.585Z,1.73
2019-06-08T13:57:58.741Z,1.50
2019-06-08T14:00:34.714Z,1.30
2019-06-08T14:03:04.743Z,1.70
2019-06-08T14:05:33.994Z,1.50
2019-06-08T14:08:03.269Z,1.93
2019-06-08T14:10:38.517Z,1.67
2019-06-08T14:13:08.200Z,1.63
2019-06-08T14:15:37.878Z,1.40
2019-06-08T14:18:08.752Z,1.47
2019-06-08T14:20:38.976Z,1.57
2019-06-08T14:23:09.163Z,1.60
2019-06-08T14:25:50.536Z,1.80
2019-06-08T14:28:09.633Z,1.67
2019-06-08T14:30:38.762Z,1.23
2019-06-08T14:33:08.424Z,1.77
2019-06-08T14:35:37.724Z,1.43
2019-06-08T14:38:06.921Z,1.30
2019-06-08T14:40:37.588Z,1.57
2019-06-08T14:43:10.427Z,1.40
2019-06-08T14:45:37.952Z,1.47
2019-06-08T14:48:08.239Z,1.40
2019-06-08T14:50:40.593Z,1.40
2019-06-08T14:53:08.814Z,1.30
2019-06-08T14:55:38.640Z,1.57
2019-06-08T14:58:08.444Z,1.63
2019-06-08T15:00:38.328Z,1.80
2019-06-08T15:03:07.943Z,1.40
2019-06-08T15:05:37.309Z,1.90
2019-06-08T15:08:08.329Z,2.17
2019-06-08T15:10:38.453Z,4.73
2019-06-08T15:13:07.934Z,1.47
2019-06-08T15:15:38.108Z,1.50
2019-06-08T15:18:12.354Z,1.90
2019-06-08T15:20:41.661Z,1.90
2019-06-08T15:23:10.691Z,1.40
2019-06-08T15:25:39.819Z,1.67
2019-06-08T15:28:09.054Z,1.53
2019-06-08T15:30:38.263Z,2.70
2019-06-08T15:33:07.553Z,1.60
2019-06-08T15:35:39.053Z,1.10
2019-06-08T15:38:08.725Z,1.43
2019-06-08T15:40:38.089Z,1.70
2019-06-08T15:43:08.616Z,1.77
2019-06-08T15:45:38.137Z,1.60
2019-06-08T15:48:08.040Z,1.90
2019-06-08T15:50:38.003Z,2.10
2019-06-08T15:53:08.452Z,1.70
2019-06-08T15:55:39.832Z,2.07
2019-06-08T15:58:09.075Z,1.80
2019-06-08T16:00:38.402Z,1.60
2019-06-08T16:03:08.082Z,1.40
2019-06-08T16:05:37.342Z,2.07
2019-06-08T16:08:09.130Z,1.33
2019-06-08T16:10:38.584Z,1.80
2019-06-08T16:13:09.166Z,1.27
2019-06-08T16:15:38.610Z,1.87
2019-06-08T16:18:08.541Z,2.07
2019-06-08T16:20:38.107Z,1.60
2019-06-08T16:23:07.962Z,1.97
2019-06-08T16:25:39.013Z,1.87
2019-06-08T16:28:08.312Z,1.70
2019-06-08T16:30:37.716Z,2.10
2019-06-08T16:33:07.225Z,2.03
2019-06-08T16:35:36.219Z,2.50
2019-06-08T16:38:05.804Z,1.73
2019-06-08T16:40:36.321Z,1.50
2019-06-08T16:43:05.814Z,1.70
2019-06-08T16:45:35.226Z,2.10
2019-06-08T16:48:05.147Z,1.83
2019-06-08T16:50:34.839Z,2.30
2019-06-08T16:53:09.744Z,1.80
2019-06-08T16:55:39.211Z,2.00
2019-06-08T16:58:08.791Z,1.80
2019-06-08T17:00:40.735Z,2.70
2019-06-08T17:03:09.290Z,2.00
2019-06-08T17:05:39.010Z,1.60
2019-06-08T17:08:11.631Z,2.20
2019-06-08T17:10:41.180Z,2.23
2019-06-08T17:13:15.522Z,1.60
2019-06-08T17:15:45.230Z,1.73
2019-06-08T17:18:16.267Z,2.73
2019-06-08T17:20:45.877Z,1.70
2019-06-08T17:23:15.475Z,1.97
2019-06-08T17:25:44.896Z,2.53
2019-06-08T17:28:14.348Z,2.50
2019-06-08T17:30:44.241Z,2.00
2019-06-08T17:33:33.418Z,2.83
2019-06-08T17:36:02.889Z,2.50
2019-06-08T17:38:57.164Z,2.30
2019-06-08T17:41:45.943Z,2.40
2019-06-08T17:44:34.897Z,1.90
2019-06-08T17:47:04.602Z,2.20
2019-06-08T17:49:34.533Z,2.80
2019-06-08T17:52:03.967Z,2.10
2019-06-08T17:54:36.707Z,2.30
2019-06-08T17:57:06.479Z,2.07
2019-06-08T17:59:35.658Z,2.00
2019-06-08T18:11:17.354Z,1.50
2019-06-08T18:14:40.413Z,2.10
2019-06-08T18:31:14.152Z,2.93
2019-06-08T18:35:23.971Z,1.97
2019-06-08T18:37:51.853Z,2.10
2019-06-08T18:56:35.369Z,2.20
2019-06-08T19:02:07.869Z,2.12
2019-06-08T19:04:39.988Z,2.43
2019-06-08T19:07:13.512Z,2.30
2019-06-08T19:10:32.789Z,2.17
2019-06-08T19:13:13.444Z,2.70
2019-06-08T19:15:43.913Z,2.20
2019-06-08T19:18:30.233Z,2.60
2019-06-08T19:21:03.170Z,2.33
2019-06-08T19:23:37.599Z,2.30
2019-06-08T19:26:17.193Z,2.22
2019-06-08T19:28:54.023Z,2.20
2019-06-08T19:32:07.470Z,2.50
2019-06-08T19:34:45.144Z,2.40
2019-06-08T19:37:42.026Z,2.37
2019-06-08T19:40:17.659Z,2.45
2019-06-08T19:43:07.621Z,2.45
2019-06-08T19:45:41.912Z,2.90
2019-06-08T19:48:17.572Z,2.30
2019-06-08T19:52:14.112Z,2.50
2019-06-08T19:54:53.330Z,2.00
2019-06-08T19:57:19.338Z,2.37
2019-06-08T19:59:51.502Z,2.62
2019-06-08T20:02:23.763Z,2.58
2019-06-08T20:04:54.096Z,2.10
2019-06-08T20:07:29.431Z,1.85
2019-06-08T20:09:59.667Z,2.00
2019-06-08T20:18:57.604Z,1.85
2019-06-08T20:24:55.877Z,2.60
2019-06-08T20:27:29.717Z,2.15
2019-06-08T20:33:15.593Z,2.70
2019-06-08T20:35:37.617Z,2.40
2019-06-08T20:38:08.312Z,2.12
2019-06-08T20:40:38.696Z,2.20
2019-06-08T20:43:11.823Z,1.45
2019-06-08T20:46:00.954Z,1.98
2019-06-08T20:48:37.633Z,2.10
2019-06-08T20:51:30.881Z,1.65
2019-06-08T20:54:00.410Z,1.80
2019-06-08T20:56:29.527Z,1.70
2019-06-08T20:58:59.758Z,2.10
2019-06-08T21:01:28.852Z,1.98
2019-06-08T21:03:58.187Z,2.58
2019-06-08T21:06:29.102Z,1.50
2019-06-08T21:08:59.860Z,1.75
2019-06-08T21:11:28.840Z,1.55
2019-06-08T21:14:00.189Z,1.45
2019-06-08T21:16:29.359Z,2.20
2019-06-08T21:18:58.511Z,2.00
2019-06-08T21:21:28.363Z,1.40
2019-06-08T21:24:01.126Z,1.60
2019-06-08T21:26:30.269Z,1.75
2019-06-08T21:29:00.371Z,1.75
2019-06-08T21:31:29.827Z,2.20
2019-06-08T21:34:00.758Z,1.85
2019-06-08T21:36:29.577Z,1.50
2019-06-08T21:39:02.479Z,1.75
2019-06-08T21:41:31.358Z,2.17
2019-06-08T21:44:01.955Z,1.80
2019-06-08T21:46:31.679Z,1.35
2019-06-08T21:49:00.662Z,1.90
2019-06-08T21:51:30.105Z,1.52
2019-06-08T21:54:00.437Z,1.70
2019-06-08T21:56:29.827Z,2.00
2019-06-08T21:59:00.961Z,2.08
2019-06-08T22:01:32.495Z,1.75
2019-06-08T22:04:02.360Z,1.80
2019-06-08T22:06:44.727Z,1.75
2019-06-08T22:09:17.674Z,2.00
2019-06-08T22:11:51.502Z,1.87
2019-06-08T22:14:27.843Z,1.60
2019-06-08T22:17:00.952Z,1.82
2019-06-08T22:19:29.656Z,1.67
2019-06-08T22:22:02.114Z,1.40
2019-06-08T22:24:33.194Z,1.40
2019-06-08T22:27:03.612Z,1.40
2019-06-08T22:29:32.795Z,2.02
2019-06-08T22:32:07.446Z,1.22
2019-06-08T22:34:39.440Z,1.70
2019-06-08T22:37:08.794Z,1.72
2019-06-08T22:39:38.212Z,1.50
2019-06-08T22:42:08.299Z,2.12
2019-06-08T22:44:59.195Z,1.70
2019-06-08T22:47:27.788Z,1.55
2019-06-08T22:49:58.426Z,1.75
2019-06-08T22:52:29.652Z,1.80
2019-06-08T22:55:20.671Z,1.72
2019-06-08T22:57:49.749Z,1.90
2019-06-08T23:00:21.721Z,1.30
2019-06-08T23:02:49.802Z,1.40
2019-06-08T23:05:18.801Z,1.30
2019-06-08T23:07:48.793Z,1.77
2019-06-08T23:10:18.011Z,1.35
2019-06-08T23:12:47.318Z,1.82
2019-06-08T23:15:18.327Z,1.55
2019-06-08T23:17:47.918Z,1.30
2019-06-08T23:20:18.612Z,1.50
2019-06-08T23:22:47.644Z,1.05
2019-06-08T23:25:18.355Z,1.32
2019-06-08T23:27:48.403Z,1.60
2019-06-08T23:30:18.474Z,1.30
2019-06-08T23:32:48.108Z,1.17
2019-06-08T23:35:18.199Z,1.90
2019-06-08T23:37:47.829Z,1.98
2019-06-08T23:40:17.909Z,2.40
2019-06-08T23:42:47.616Z,1.77
2019-06-08T23:45:17.645Z,1.60
2019-06-08T23:47:48.059Z,1.40
2019-06-08T23:50:17.900Z,1.95
2019-06-08T23:52:47.739Z,2.00
2019-06-08T23:55:18.154Z,1.40
2019-06-08T23:57:47.333Z,1.30
